sensor_id;sensor_type;location;lat;lon;timestamp;P1;P2;P0
73241;PMS5003;65659;49.234;-2.094;2024-03-22T00:01:21;6;5;
73241;PMS5003;65659;49.234;-2.094;2024-03-22T00:03:47;5;5;
73241;PMS5003;65659;49.234;-2.094;2024-03-22T00:06:13;4;4;
73241;PMS5003;65659;49.234;-2.094;2024-03-22T00:08:38;4;4;
73241;PMS5003;65659;49.234;-2.094;2024-03-22T00:11:03;4;4;
73241;PMS5003;65659;49.234;-2.094;2024-03-22T00:13:29;4;4;
73241;PMS5003;65659;49.234;-2.094;2024-03-22T00:15:54;3;3;
73241;PMS5003;65659;49.234;-2.094;2024-03-22T00:18:20;5;4;
73241;PMS5003;65659;49.234;-2.094;2024-03-22T00:20:45;4;4;
73241;PMS5003;65659;49.234;-2.094;2024-03-22T00:23:10;10;10;
73241;PMS5003;65659;49.234;-2.094;2024-03-22T00:25:36;11;9;
73241;PMS5003;65659;49.234;-2.094;2024-03-22T00:28:01;6;6;
73241;PMS5003;65659;49.234;-2.094;2024-03-22T00:30:27;8;7;
73241;PMS5003;65659;49.234;-2.094;2024-03-22T00:32:52;3;3;
73241;PMS5003;65659;49.234;-2.094;2024-03-22T00:35:18;4;4;
73241;PMS5003;65659;49.234;-2.094;2024-03-22T00:37:44;3;3;
73241;PMS5003;65659;49.234;-2.094;2024-03-22T00:40:10;7;7;
73241;PMS5003;65659;49.234;-2.094;2024-03-22T00:42:34;5;5;
73241;PMS5003;65659;49.234;-2.094;2024-03-22T00:45:00;5;4;
73241;PMS5003;65659;49.234;-2.094;2024-03-22T00:47:25;7;7;
73241;PMS5003;65659;49.234;-2.094;2024-03-22T00:49:51;4;4;
73241;PMS5003;65659;49.234;-2.094;2024-03-22T00:52:16;5;5;
73241;PMS5003;65659;49.234;-2.094;2024-03-22T00:54:42;4;4;
73241;PMS5003;65659;49.234;-2.094;2024-03-22T00:57:07;6;5;
73241;PMS5003;65659;49.234;-2.094;2024-03-22T00:59:33;5;4;
73241;PMS5003;65659;49.234;-2.094;2024-03-22T01:01:59;3;3;
73241;PMS5003;65659;49.234;-2.094;2024-03-22T01:04:24;2;2;
73241;PMS5003;65659;49.234;-2.094;2024-03-22T01:06:49;3;3;
73241;PMS5003;65659;49.234;-2.094;2024-03-22T01:09:15;3;3;
73241;PMS5003;65659;49.234;-2.094;2024-03-22T01:11:40;4;4;
73241;PMS5003;65659;49.234;-2.094;2024-03-22T01:14:06;6;6;
73241;PMS5003;65659;49.234;-2.094;2024-03-22T01:16:31;5;5;
73241;PMS5003;65659;49.234;-2.094;2024-03-22T01:18:57;8;7;
73241;PMS5003;65659;49.234;-2.094;2024-03-22T01:21:22;10;10;
73241;PMS5003;65659;49.234;-2.094;2024-03-22T01:23:47;9;9;
73241;PMS5003;65659;49.234;-2.094;2024-03-22T01:26:13;11;10;
73241;PMS5003;65659;49.234;-2.094;2024-03-22T01:28:38;10;10;
73241;PMS5003;65659;49.234;-2.094;2024-03-22T01:31:03;10;10;
73241;PMS5003;65659;49.234;-2.094;2024-03-22T01:33:29;9;8;
73241;PMS5003;65659;49.234;-2.094;2024-03-22T01:35:54;6;6;
73241;PMS5003;65659;49.234;-2.094;2024-03-22T01:38:20;8;8;
73241;PMS5003;65659;49.234;-2.094;2024-03-22T01:40:45;5;5;
73241;PMS5003;65659;49.234;-2.094;2024-03-22T01:43:10;3;3;
73241;PMS5003;65659;49.234;-2.094;2024-03-22T01:45:36;3;3;
73241;PMS5003;65659;49.234;-2.094;2024-03-22T01:48:01;4;4;
73241;PMS5003;65659;49.234;-2.094;2024-03-22T01:50:27;6;5;
73241;PMS5003;65659;49.234;-2.094;2024-03-22T01:52:52;4;4;
73241;PMS5003;65659;49.234;-2.094;2024-03-22T01:55:18;5;5;
73241;PMS5003;65659;49.234;-2.094;2024-03-22T01:57:43;8;8;
73241;PMS5003;65659;49.234;-2.094;2024-03-22T02:00:09;9;9;
73241;PMS5003;65659;49.234;-2.094;2024-03-22T02:02:34;8;8;
73241;PMS5003;65659;49.234;-2.094;2024-03-22T02:05:10;6;5;
73241;PMS5003;65659;49.234;-2.094;2024-03-22T02:07:24;8;8;
73241;PMS5003;65659;49.234;-2.094;2024-03-22T02:09:50;9;9;
73241;PMS5003;65659;49.234;-2.094;2024-03-22T02:12:16;6;6;
73241;PMS5003;65659;49.234;-2.094;2024-03-22T02:14:42;6;6;
73241;PMS5003;65659;49.234;-2.094;2024-03-22T02:17:07;5;5;
73241;PMS5003;65659;49.234;-2.094;2024-03-22T02:19:32;8;7;
73241;PMS5003;65659;49.234;-2.094;2024-03-22T02:21:58;8;8;
73241;PMS5003;65659;49.234;-2.094;2024-03-22T02:24:24;8;8;
73241;PMS5003;65659;49.234;-2.094;2024-03-22T02:26:49;8;8;
73241;PMS5003;65659;49.234;-2.094;2024-03-22T02:29:15;10;10;
73241;PMS5003;65659;49.234;-2.094;2024-03-22T02:31:40;8;8;
73241;PMS5003;65659;49.234;-2.094;2024-03-22T02:34:06;7;7;
73241;PMS5003;65659;49.234;-2.094;2024-03-22T02:36:31;4;3;
73241;PMS5003;65659;49.234;-2.094;2024-03-22T02:38:57;5;5;
73241;PMS5003;65659;49.234;-2.094;2024-03-22T02:41:22;9;8;
73241;PMS5003;65659;49.234;-2.094;2024-03-22T02:43:48;7;7;
73241;PMS5003;65659;49.234;-2.094;2024-03-22T02:46:13;7;7;
73241;PMS5003;65659;49.234;-2.094;2024-03-22T02:48:39;7;6;
73241;PMS5003;65659;49.234;-2.094;2024-03-22T02:51:04;5;5;
73241;PMS5003;65659;49.234;-2.094;2024-03-22T02:53:30;5;5;
73241;PMS5003;65659;49.234;-2.094;2024-03-22T02:55:55;8;8;
73241;PMS5003;65659;49.234;-2.094;2024-03-22T02:58:20;5;5;
73241;PMS5003;65659;49.234;-2.094;2024-03-22T03:00:46;3;3;
73241;PMS5003;65659;49.234;-2.094;2024-03-22T03:03:12;6;6;
73241;PMS5003;65659;49.234;-2.094;2024-03-22T03:05:37;2;2;
73241;PMS5003;65659;49.234;-2.094;2024-03-22T03:08:03;5;5;
73241;PMS5003;65659;49.234;-2.094;2024-03-22T03:10:28;8;7;
73241;PMS5003;65659;49.234;-2.094;2024-03-22T03:12:54;9;9;
73241;PMS5003;65659;49.234;-2.094;2024-03-22T03:15:20;7;7;
73241;PMS5003;65659;49.234;-2.094;2024-03-22T03:17:45;7;7;
73241;PMS5003;65659;49.234;-2.094;2024-03-22T03:20:11;10;9;
73241;PMS5003;65659;49.234;-2.094;2024-03-22T03:22:36;6;6;
73241;PMS5003;65659;49.234;-2.094;2024-03-22T03:25:03;5;5;
73241;PMS5003;65659;49.234;-2.094;2024-03-22T03:27:27;3;3;
73241;PMS5003;65659;49.234;-2.094;2024-03-22T03:29:52;4;4;
73241;PMS5003;65659;49.234;-2.094;2024-03-22T03:32:17;7;7;
73241;PMS5003;65659;49.234;-2.094;2024-03-22T03:34:43;5;5;
73241;PMS5003;65659;49.234;-2.094;2024-03-22T03:37:08;8;7;
73241;PMS5003;65659;49.234;-2.094;2024-03-22T03:39:34;6;6;
73241;PMS5003;65659;49.234;-2.094;2024-03-22T03:41:59;6;5;
73241;PMS5003;65659;49.234;-2.094;2024-03-22T03:44:25;4;3;
73241;PMS5003;65659;49.234;-2.094;2024-03-22T03:46:50;7;5;
73241;PMS5003;65659;49.234;-2.094;2024-03-22T03:49:16;6;6;
73241;PMS5003;65659;49.234;-2.094;2024-03-22T03:51:41;9;9;
73241;PMS5003;65659;49.234;-2.094;2024-03-22T03:54:07;7;7;
73241;PMS5003;65659;49.234;-2.094;2024-03-22T03:56:32;7;6;
73241;PMS5003;65659;49.234;-2.094;2024-03-22T03:58:58;7;7;
73241;PMS5003;65659;49.234;-2.094;2024-03-22T04:01:23;8;7;
73241;PMS5003;65659;49.234;-2.094;2024-03-22T04:03:49;9;9;
73241;PMS5003;65659;49.234;-2.094;2024-03-22T04:06:14;8;8;
73241;PMS5003;65659;49.234;-2.094;2024-03-22T04:08:40;6;6;
73241;PMS5003;65659;49.234;-2.094;2024-03-22T04:11:05;4;4;
73241;PMS5003;65659;49.234;-2.094;2024-03-22T04:13:30;6;6;
73241;PMS5003;65659;49.234;-2.094;2024-03-22T04:15:58;5;5;
73241;PMS5003;65659;49.234;-2.094;2024-03-22T04:18:21;3;2;
73241;PMS5003;65659;49.234;-2.094;2024-03-22T04:23:12;6;6;
73241;PMS5003;65659;49.234;-2.094;2024-03-22T04:25:37;4;4;
73241;PMS5003;65659;49.234;-2.094;2024-03-22T04:28:03;4;4;
73241;PMS5003;65659;49.234;-2.094;2024-03-22T04:30:29;4;4;
73241;PMS5003;65659;49.234;-2.094;2024-03-22T04:32:54;4;4;
73241;PMS5003;65659;49.234;-2.094;2024-03-22T04:35:19;5;5;
73241;PMS5003;65659;49.234;-2.094;2024-03-22T04:37:45;5;5;
73241;PMS5003;65659;49.234;-2.094;2024-03-22T04:40:11;3;3;
73241;PMS5003;65659;49.234;-2.094;2024-03-22T04:42:36;7;7;
73241;PMS5003;65659;49.234;-2.094;2024-03-22T04:45:01;6;5;
73241;PMS5003;65659;49.234;-2.094;2024-03-22T04:47:27;8;8;
73241;PMS5003;65659;49.234;-2.094;2024-03-22T04:49:52;8;8;
73241;PMS5003;65659;49.234;-2.094;2024-03-22T04:52:18;5;5;
73241;PMS5003;65659;49.234;-2.094;2024-03-22T04:54:43;6;6;
73241;PMS5003;65659;49.234;-2.094;2024-03-22T04:57:09;6;6;
73241;PMS5003;65659;49.234;-2.094;2024-03-22T04:59:34;8;8;
73241;PMS5003;65659;49.234;-2.094;2024-03-22T05:02:00;6;6;
73241;PMS5003;65659;49.234;-2.094;2024-03-22T05:04:26;8;7;
73241;PMS5003;65659;49.234;-2.094;2024-03-22T05:06:51;9;8;
73241;PMS5003;65659;49.234;-2.094;2024-03-22T05:09:16;7;7;
73241;PMS5003;65659;49.234;-2.094;2024-03-22T05:11:41;6;6;
73241;PMS5003;65659;49.234;-2.094;2024-03-22T05:14:06;7;6;
73241;PMS5003;65659;49.234;-2.094;2024-03-22T05:16:32;7;7;
73241;PMS5003;65659;49.234;-2.094;2024-03-22T05:18:57;6;5;
73241;PMS5003;65659;49.234;-2.094;2024-03-22T05:21:24;5;5;
73241;PMS5003;65659;49.234;-2.094;2024-03-22T05:23:48;6;5;
73241;PMS5003;65659;49.234;-2.094;2024-03-22T05:26:14;8;7;
73241;PMS5003;65659;49.234;-2.094;2024-03-22T05:28:39;5;5;
73241;PMS5003;65659;49.234;-2.094;2024-03-22T05:31:05;5;5;
73241;PMS5003;65659;49.234;-2.094;2024-03-22T05:33:30;6;6;
73241;PMS5003;65659;49.234;-2.094;2024-03-22T05:35:56;5;4;
73241;PMS5003;65659;49.234;-2.094;2024-03-22T05:38:22;8;8;
73241;PMS5003;65659;49.234;-2.094;2024-03-22T05:40:47;10;10;
73241;PMS5003;65659;49.234;-2.094;2024-03-22T05:43:13;5;5;
73241;PMS5003;65659;49.234;-2.094;2024-03-22T05:45:39;6;5;
73241;PMS5003;65659;49.234;-2.094;2024-03-22T05:48:05;7;7;
73241;PMS5003;65659;49.234;-2.094;2024-03-22T05:50:30;8;8;
73241;PMS5003;65659;49.234;-2.094;2024-03-22T05:52:55;7;6;
73241;PMS5003;65659;49.234;-2.094;2024-03-22T05:55:20;7;7;
73241;PMS5003;65659;49.234;-2.094;2024-03-22T05:57:46;7;6;
73241;PMS5003;65659;49.234;-2.094;2024-03-22T06:00:11;8;8;
73241;PMS5003;65659;49.234;-2.094;2024-03-22T06:02:37;9;9;
73241;PMS5003;65659;49.234;-2.094;2024-03-22T06:05:03;6;6;
73241;PMS5003;65659;49.234;-2.094;2024-03-22T06:07:28;9;9;
73241;PMS5003;65659;49.234;-2.094;2024-03-22T06:09:53;6;6;
73241;PMS5003;65659;49.234;-2.094;2024-03-22T06:12:18;7;7;
73241;PMS5003;65659;49.234;-2.094;2024-03-22T06:14:43;7;6;
73241;PMS5003;65659;49.234;-2.094;2024-03-22T06:17:09;6;6;
73241;PMS5003;65659;49.234;-2.094;2024-03-22T06:19:34;7;6;
73241;PMS5003;65659;49.234;-2.094;2024-03-22T06:22:00;6;6;
73241;PMS5003;65659;49.234;-2.094;2024-03-22T06:24:26;7;7;
73241;PMS5003;65659;49.234;-2.094;2024-03-22T06:26:51;6;5;
73241;PMS5003;65659;49.234;-2.094;2024-03-22T06:29:16;4;4;
73241;PMS5003;65659;49.234;-2.094;2024-03-22T06:31:42;6;6;
73241;PMS5003;65659;49.234;-2.094;2024-03-22T06:34:08;7;6;
73241;PMS5003;65659;49.234;-2.094;2024-03-22T06:36:33;7;7;
73241;PMS5003;65659;49.234;-2.094;2024-03-22T06:38:58;5;4;
73241;PMS5003;65659;49.234;-2.094;2024-03-22T06:41:24;7;7;
73241;PMS5003;65659;49.234;-2.094;2024-03-22T06:43:50;7;7;
73241;PMS5003;65659;49.234;-2.094;2024-03-22T06:46:15;9;9;
73241;PMS5003;65659;49.234;-2.094;2024-03-22T06:48:41;9;9;
73241;PMS5003;65659;49.234;-2.094;2024-03-22T06:51:06;8;8;
73241;PMS5003;65659;49.234;-2.094;2024-03-22T06:53:31;10;9;
73241;PMS5003;65659;49.234;-2.094;2024-03-22T06:55:57;8;8;
73241;PMS5003;65659;49.234;-2.094;2024-03-22T06:58:22;6;6;
73241;PMS5003;65659;49.234;-2.094;2024-03-22T07:00:47;8;7;
73241;PMS5003;65659;49.234;-2.094;2024-03-22T07:03:13;9;8;
73241;PMS5003;65659;49.234;-2.094;2024-03-22T07:05:38;14;12;
73241;PMS5003;65659;49.234;-2.094;2024-03-22T07:08:03;6;6;
73241;PMS5003;65659;49.234;-2.094;2024-03-22T07:10:29;7;6;
73241;PMS5003;65659;49.234;-2.094;2024-03-22T07:12:54;7;6;
73241;PMS5003;65659;49.234;-2.094;2024-03-22T07:15:19;11;11;
73241;PMS5003;65659;49.234;-2.094;2024-03-22T07:17:45;8;8;
73241;PMS5003;65659;49.234;-2.094;2024-03-22T07:20:10;8;6;
73241;PMS5003;65659;49.234;-2.094;2024-03-22T07:22:36;8;8;
73241;PMS5003;65659;49.234;-2.094;2024-03-22T07:25:01;5;5;
73241;PMS5003;65659;49.234;-2.094;2024-03-22T07:27:27;8;7;
73241;PMS5003;65659;49.234;-2.094;2024-03-22T07:29:52;6;5;
73241;PMS5003;65659;49.234;-2.094;2024-03-22T07:32:18;6;6;
73241;PMS5003;65659;49.234;-2.094;2024-03-22T07:34:45;7;7;
73241;PMS5003;65659;49.234;-2.094;2024-03-22T07:37:08;5;5;
73241;PMS5003;65659;49.234;-2.094;2024-03-22T07:39:34;7;7;
73241;PMS5003;65659;49.234;-2.094;2024-03-22T07:42:00;7;6;
73241;PMS5003;65659;49.234;-2.094;2024-03-22T07:44:25;6;6;
73241;PMS5003;65659;49.234;-2.094;2024-03-22T07:46:51;6;6;
73241;PMS5003;65659;49.234;-2.094;2024-03-22T07:49:16;5;5;
73241;PMS5003;65659;49.234;-2.094;2024-03-22T07:51:42;7;7;
73241;PMS5003;65659;49.234;-2.094;2024-03-22T07:54:07;8;7;
73241;PMS5003;65659;49.234;-2.094;2024-03-22T07:56:32;6;6;
73241;PMS5003;65659;49.234;-2.094;2024-03-22T07:58:58;12;12;
73241;PMS5003;65659;49.234;-2.094;2024-03-22T08:01:23;7;7;
73241;PMS5003;65659;49.234;-2.094;2024-03-22T08:03:49;7;7;
73241;PMS5003;65659;49.234;-2.094;2024-03-22T08:06:20;7;7;
73241;PMS5003;65659;49.234;-2.094;2024-03-22T08:08:40;8;8;
73241;PMS5003;65659;49.234;-2.094;2024-03-22T08:11:06;6;6;
73241;PMS5003;65659;49.234;-2.094;2024-03-22T08:13:32;5;5;
73241;PMS5003;65659;49.234;-2.094;2024-03-22T08:15:58;6;6;
73241;PMS5003;65659;49.234;-2.094;2024-03-22T08:18:24;10;9;
73241;PMS5003;65659;49.234;-2.094;2024-03-22T08:20:48;8;6;
73241;PMS5003;65659;49.234;-2.094;2024-03-22T08:23:13;6;6;
73241;PMS5003;65659;49.234;-2.094;2024-03-22T08:25:39;5;5;
73241;PMS5003;65659;49.234;-2.094;2024-03-22T08:28:04;6;6;
73241;PMS5003;65659;49.234;-2.094;2024-03-22T08:30:30;6;6;
73241;PMS5003;65659;49.234;-2.094;2024-03-22T08:32:56;7;6;
73241;PMS5003;65659;49.234;-2.094;2024-03-22T08:35:21;6;5;
73241;PMS5003;65659;49.234;-2.094;2024-03-22T08:37:46;8;7;
73241;PMS5003;65659;49.234;-2.094;2024-03-22T08:40:12;5;5;
73241;PMS5003;65659;49.234;-2.094;2024-03-22T08:42:37;7;6;
73241;PMS5003;65659;49.234;-2.094;2024-03-22T08:45:04;6;5;
73241;PMS5003;65659;49.234;-2.094;2024-03-22T08:47:28;7;7;
73241;PMS5003;65659;49.234;-2.094;2024-03-22T08:49:54;6;5;
73241;PMS5003;65659;49.234;-2.094;2024-03-22T08:52:19;7;6;
73241;PMS5003;65659;49.234;-2.094;2024-03-22T08:54:45;7;6;
73241;PMS5003;65659;49.234;-2.094;2024-03-22T08:57:10;4;4;
73241;PMS5003;65659;49.234;-2.094;2024-03-22T08:59:36;4;4;
73241;PMS5003;65659;49.234;-2.094;2024-03-22T09:02:01;4;4;
73241;PMS5003;65659;49.234;-2.094;2024-03-22T09:04:28;5;5;
73241;PMS5003;65659;49.234;-2.094;2024-03-22T09:06:53;5;4;
73241;PMS5003;65659;49.234;-2.094;2024-03-22T09:09:19;6;5;
73241;PMS5003;65659;49.234;-2.094;2024-03-22T09:11:44;6;5;
73241;PMS5003;65659;49.234;-2.094;2024-03-22T09:14:10;5;5;
73241;PMS5003;65659;49.234;-2.094;2024-03-22T09:16:36;5;5;
73241;PMS5003;65659;49.234;-2.094;2024-03-22T09:19:02;7;5;
73241;PMS5003;65659;49.234;-2.094;2024-03-22T09:21:28;5;4;
73241;PMS5003;65659;49.234;-2.094;2024-03-22T09:23:53;5;4;
73241;PMS5003;65659;49.234;-2.094;2024-03-22T09:26:19;4;4;
73241;PMS5003;65659;49.234;-2.094;2024-03-22T09:28:46;5;4;
73241;PMS5003;65659;49.234;-2.094;2024-03-22T09:31:11;5;5;
73241;PMS5003;65659;49.234;-2.094;2024-03-22T09:33:37;8;8;
73241;PMS5003;65659;49.234;-2.094;2024-03-22T09:36:03;23;22;
73241;PMS5003;65659;49.234;-2.094;2024-03-22T09:38:28;21;21;
73241;PMS5003;65659;49.234;-2.094;2024-03-22T09:40:53;12;12;
73241;PMS5003;65659;49.234;-2.094;2024-03-22T09:43:20;8;8;
73241;PMS5003;65659;49.234;-2.094;2024-03-22T09:45:45;11;11;
73241;PMS5003;65659;49.234;-2.094;2024-03-22T09:48:11;7;7;
73241;PMS5003;65659;49.234;-2.094;2024-03-22T09:50:46;16;13;
73241;PMS5003;65659;49.234;-2.094;2024-03-22T09:53:02;6;6;
73241;PMS5003;65659;49.234;-2.094;2024-03-22T09:55:28;10;8;
73241;PMS5003;65659;49.234;-2.094;2024-03-22T09:57:54;9;9;
73241;PMS5003;65659;49.234;-2.094;2024-03-22T10:00:19;6;5;
73241;PMS5003;65659;49.234;-2.094;2024-03-22T10:02:43;6;6;
73241;PMS5003;65659;49.234;-2.094;2024-03-22T10:05:09;8;6;
73241;PMS5003;65659;49.234;-2.094;2024-03-22T10:07:35;7;7;
73241;PMS5003;65659;49.234;-2.094;2024-03-22T10:10:01;8;7;
73241;PMS5003;65659;49.234;-2.094;2024-03-22T10:12:27;6;6;
73241;PMS5003;65659;49.234;-2.094;2024-03-22T10:14:52;7;7;
73241;PMS5003;65659;49.234;-2.094;2024-03-22T10:17:18;6;6;
73241;PMS5003;65659;49.234;-2.094;2024-03-22T10:19:44;9;7;
73241;PMS5003;65659;49.234;-2.094;2024-03-22T10:22:09;7;7;
73241;PMS5003;65659;49.234;-2.094;2024-03-22T10:24:35;7;7;
73241;PMS5003;65659;49.234;-2.094;2024-03-22T10:27:01;5;4;
73241;PMS5003;65659;49.234;-2.094;2024-03-22T10:29:26;6;5;
73241;PMS5003;65659;49.234;-2.094;2024-03-22T10:31:52;8;8;
73241;PMS5003;65659;49.234;-2.094;2024-03-22T10:34:17;6;6;
73241;PMS5003;65659;49.234;-2.094;2024-03-22T10:36:42;6;6;
73241;PMS5003;65659;49.234;-2.094;2024-03-22T10:39:08;12;11;
73241;PMS5003;65659;49.234;-2.094;2024-03-22T10:41:33;14;13;
73241;PMS5003;65659;49.234;-2.094;2024-03-22T10:43:59;12;11;
73241;PMS5003;65659;49.234;-2.094;2024-03-22T10:46:26;16;16;
73241;PMS5003;65659;49.234;-2.094;2024-03-22T10:48:49;13;13;
73241;PMS5003;65659;49.234;-2.094;2024-03-22T10:51:15;16;13;
73241;PMS5003;65659;49.234;-2.094;2024-03-22T10:53:40;14;14;
73241;PMS5003;65659;49.234;-2.094;2024-03-22T10:56:06;16;16;
73241;PMS5003;65659;49.234;-2.094;2024-03-22T10:58:30;19;18;
73241;PMS5003;65659;49.234;-2.094;2024-03-22T11:00:57;19;18;
73241;PMS5003;65659;49.234;-2.094;2024-03-22T11:03:21;18;17;
73241;PMS5003;65659;49.234;-2.094;2024-03-22T11:05:47;18;18;
73241;PMS5003;65659;49.234;-2.094;2024-03-22T11:08:22;15;14;
73241;PMS5003;65659;49.234;-2.094;2024-03-22T11:10:40;16;16;
73241;PMS5003;65659;49.234;-2.094;2024-03-22T11:13:05;14;14;
73241;PMS5003;65659;49.234;-2.094;2024-03-22T11:15:29;15;15;
73241;PMS5003;65659;49.234;-2.094;2024-03-22T11:18:00;19;18;
73241;PMS5003;65659;49.234;-2.094;2024-03-22T11:20:27;16;16;
73241;PMS5003;65659;49.234;-2.094;2024-03-22T11:22:45;17;17;
73241;PMS5003;65659;49.234;-2.094;2024-03-22T11:25:11;16;16;
73241;PMS5003;65659;49.234;-2.094;2024-03-22T11:27:37;23;23;
73241;PMS5003;65659;49.234;-2.094;2024-03-22T11:30:03;34;31;
73241;PMS5003;65659;49.234;-2.094;2024-03-22T11:32:28;22;22;
73241;PMS5003;65659;49.234;-2.094;2024-03-22T11:34:53;25;25;
73241;PMS5003;65659;49.234;-2.094;2024-03-22T11:37:19;20;20;
73241;PMS5003;65659;49.234;-2.094;2024-03-22T11:39:44;20;20;
73241;PMS5003;65659;49.234;-2.094;2024-03-22T11:42:11;19;18;
73241;PMS5003;65659;49.234;-2.094;2024-03-22T11:44:37;16;16;
73241;PMS5003;65659;49.234;-2.094;2024-03-22T11:47:02;21;19;
73241;PMS5003;65659;49.234;-2.094;2024-03-22T11:49:27;14;13;
73241;PMS5003;65659;49.234;-2.094;2024-03-22T11:51:52;20;18;
73241;PMS5003;65659;49.234;-2.094;2024-03-22T11:54:19;15;15;
73241;PMS5003;65659;49.234;-2.094;2024-03-22T11:56:43;14;14;
73241;PMS5003;65659;49.234;-2.094;2024-03-22T11:59:13;11;11;
73241;PMS5003;65659;49.234;-2.094;2024-03-22T12:01:34;11;11;
73241;PMS5003;65659;49.234;-2.094;2024-03-22T12:04:00;9;8;
73241;PMS5003;65659;49.234;-2.094;2024-03-22T12:06:28;8;8;
73241;PMS5003;65659;49.234;-2.094;2024-03-22T12:08:50;10;9;
73241;PMS5003;65659;49.234;-2.094;2024-03-22T12:11:16;5;5;
73241;PMS5003;65659;49.234;-2.094;2024-03-22T12:13:41;6;6;
73241;PMS5003;65659;49.234;-2.094;2024-03-22T12:16:07;7;7;
73241;PMS5003;65659;49.234;-2.094;2024-03-22T12:18:31;6;6;
73241;PMS5003;65659;49.234;-2.094;2024-03-22T12:20:57;7;7;
73241;PMS5003;65659;49.234;-2.094;2024-03-22T12:23:22;4;4;
73241;PMS5003;65659;49.234;-2.094;2024-03-22T12:25:48;4;3;
73241;PMS5003;65659;49.234;-2.094;2024-03-22T12:28:14;5;5;
73241;PMS5003;65659;49.234;-2.094;2024-03-22T12:30:40;6;5;
73241;PMS5003;65659;49.234;-2.094;2024-03-22T12:40:21;6;6;
73241;PMS5003;65659;49.234;-2.094;2024-03-22T12:42:46;5;5;
73241;PMS5003;65659;49.234;-2.094;2024-03-22T12:45:12;6;6;
73241;PMS5003;65659;49.234;-2.094;2024-03-22T12:50:03;5;5;
73241;PMS5003;65659;49.234;-2.094;2024-03-22T12:52:30;5;4;
73241;PMS5003;65659;49.234;-2.094;2024-03-22T12:57:18;9;9;
73241;PMS5003;65659;49.234;-2.094;2024-03-22T12:59:44;10;10;
73241;PMS5003;65659;49.234;-2.094;2024-03-22T13:02:11;9;9;
73241;PMS5003;65659;49.234;-2.094;2024-03-22T13:04:35;10;9;
73241;PMS5003;65659;49.234;-2.094;2024-03-22T13:07:00;9;9;
73241;PMS5003;65659;49.234;-2.094;2024-03-22T13:09:26;8;7;
73241;PMS5003;65659;49.234;-2.094;2024-03-22T13:11:53;7;7;
73241;PMS5003;65659;49.234;-2.094;2024-03-22T13:14:18;9;8;
73241;PMS5003;65659;49.234;-2.094;2024-03-22T13:16:42;11;11;
73241;PMS5003;65659;49.234;-2.094;2024-03-22T13:19:08;5;4;
73241;PMS5003;65659;49.234;-2.094;2024-03-22T13:21:33;6;6;
73241;PMS5003;65659;49.234;-2.094;2024-03-22T13:24:00;6;6;
73241;PMS5003;65659;49.234;-2.094;2024-03-22T13:26:25;7;7;
73241;PMS5003;65659;49.234;-2.094;2024-03-22T13:28:50;5;5;
73241;PMS5003;65659;49.234;-2.094;2024-03-22T13:31:17;9;9;
73241;PMS5003;65659;49.234;-2.094;2024-03-22T13:33:42;8;6;
73241;PMS5003;65659;49.234;-2.094;2024-03-22T13:36:07;5;5;
73241;PMS5003;65659;49.234;-2.094;2024-03-22T13:38:32;5;5;
73241;PMS5003;65659;49.234;-2.094;2024-03-22T13:41:00;8;8;
73241;PMS5003;65659;49.234;-2.094;2024-03-22T13:43:23;8;8;
73241;PMS5003;65659;49.234;-2.094;2024-03-22T13:45:49;6;6;
73241;PMS5003;65659;49.234;-2.094;2024-03-22T13:48:13;11;10;
73241;PMS5003;65659;49.234;-2.094;2024-03-22T13:50:38;7;5;
73241;PMS5003;65659;49.234;-2.094;2024-03-22T13:53:04;4;3;
73241;PMS5003;65659;49.234;-2.094;2024-03-22T13:55:29;4;3;
73241;PMS5003;65659;49.234;-2.094;2024-03-22T13:57:55;4;4;
73241;PMS5003;65659;49.234;-2.094;2024-03-22T14:00:20;4;4;
73241;PMS5003;65659;49.234;-2.094;2024-03-22T14:02:47;4;3;
73241;PMS5003;65659;49.234;-2.094;2024-03-22T14:05:11;9;9;
73241;PMS5003;65659;49.234;-2.094;2024-03-22T14:07:37;5;5;
73241;PMS5003;65659;49.234;-2.094;2024-03-22T14:10:02;27;27;
73241;PMS5003;65659;49.234;-2.094;2024-03-22T14:12:28;7;7;
73241;PMS5003;65659;49.234;-2.094;2024-03-22T14:14:53;10;10;
73241;PMS5003;65659;49.234;-2.094;2024-03-22T14:17:19;5;4;
73241;PMS5003;65659;49.234;-2.094;2024-03-22T14:19:44;8;8;
73241;PMS5003;65659;49.234;-2.094;2024-03-22T14:22:10;4;4;
73241;PMS5003;65659;49.234;-2.094;2024-03-22T14:24:35;5;5;
73241;PMS5003;65659;49.234;-2.094;2024-03-22T14:27:01;16;15;
73241;PMS5003;65659;49.234;-2.094;2024-03-22T14:29:26;7;6;
73241;PMS5003;65659;49.234;-2.094;2024-03-22T14:31:52;4;4;
73241;PMS5003;65659;49.234;-2.094;2024-03-22T14:34:19;5;3;
73241;PMS5003;65659;49.234;-2.094;2024-03-22T14:36:42;5;3;
73241;PMS5003;65659;49.234;-2.094;2024-03-22T14:39:07;6;5;
73241;PMS5003;65659;49.234;-2.094;2024-03-22T14:41:33;8;8;
73241;PMS5003;65659;49.234;-2.094;2024-03-22T14:43:59;5;4;
73241;PMS5003;65659;49.234;-2.094;2024-03-22T14:46:24;5;5;
73241;PMS5003;65659;49.234;-2.094;2024-03-22T14:48:49;6;6;
73241;PMS5003;65659;49.234;-2.094;2024-03-22T14:51:15;10;9;
73241;PMS5003;65659;49.234;-2.094;2024-03-22T14:53:40;5;3;
73241;PMS5003;65659;49.234;-2.094;2024-03-22T14:56:06;8;8;
73241;PMS5003;65659;49.234;-2.094;2024-03-22T14:58:31;8;8;
73241;PMS5003;65659;49.234;-2.094;2024-03-22T15:00:56;5;5;
73241;PMS5003;65659;49.234;-2.094;2024-03-22T15:03:22;7;7;
73241;PMS5003;65659;49.234;-2.094;2024-03-22T15:05:47;11;10;
73241;PMS5003;65659;49.234;-2.094;2024-03-22T15:08:12;6;6;
73241;PMS5003;65659;49.234;-2.094;2024-03-22T15:10:37;7;7;
73241;PMS5003;65659;49.234;-2.094;2024-03-22T15:13:03;6;6;
73241;PMS5003;65659;49.234;-2.094;2024-03-22T15:15:29;8;6;
73241;PMS5003;65659;49.234;-2.094;2024-03-22T15:17:54;8;7;
73241;PMS5003;65659;49.234;-2.094;2024-03-22T15:20:20;11;10;
73241;PMS5003;65659;49.234;-2.094;2024-03-22T15:22:46;8;6;
73241;PMS5003;65659;49.234;-2.094;2024-03-22T15:25:13;6;5;
73241;PMS5003;65659;49.234;-2.094;2024-03-22T15:27:37;5;5;
73241;PMS5003;65659;49.234;-2.094;2024-03-22T15:30:03;4;4;
73241;PMS5003;65659;49.234;-2.094;2024-03-22T15:32:28;12;12;
73241;PMS5003;65659;49.234;-2.094;2024-03-22T15:34:54;22;22;
73241;PMS5003;65659;49.234;-2.094;2024-03-22T15:37:19;8;8;
73241;PMS5003;65659;49.234;-2.094;2024-03-22T15:39:44;4;3;
73241;PMS5003;65659;49.234;-2.094;2024-03-22T15:42:09;4;4;
73241;PMS5003;65659;49.234;-2.094;2024-03-22T15:44:35;5;5;
73241;PMS5003;65659;49.234;-2.094;2024-03-22T15:47:00;5;4;
73241;PMS5003;65659;49.234;-2.094;2024-03-22T15:49:26;6;6;
73241;PMS5003;65659;49.234;-2.094;2024-03-22T15:51:51;4;4;
73241;PMS5003;65659;49.234;-2.094;2024-03-22T15:54:16;7;6;
73241;PMS5003;65659;49.234;-2.094;2024-03-22T15:56:42;13;12;
73241;PMS5003;65659;49.234;-2.094;2024-03-22T15:59:09;10;6;
73241;PMS5003;65659;49.234;-2.094;2024-03-22T16:01:35;4;4;
73241;PMS5003;65659;49.234;-2.094;2024-03-22T16:03:58;8;6;
73241;PMS5003;65659;49.234;-2.094;2024-03-22T16:06:24;10;7;
73241;PMS5003;65659;49.234;-2.094;2024-03-22T16:08:49;3;3;
73241;PMS5003;65659;49.234;-2.094;2024-03-22T16:11:15;10;6;
73241;PMS5003;65659;49.234;-2.094;2024-03-22T16:13:41;7;5;
73241;PMS5003;65659;49.234;-2.094;2024-03-22T16:16:07;5;4;
73241;PMS5003;65659;49.234;-2.094;2024-03-22T16:18:31;7;6;
73241;PMS5003;65659;49.234;-2.094;2024-03-22T16:20:57;6;5;
73241;PMS5003;65659;49.234;-2.094;2024-03-22T16:23:23;3;2;
73241;PMS5003;65659;49.234;-2.094;2024-03-22T16:25:48;6;5;
73241;PMS5003;65659;49.234;-2.094;2024-03-22T16:28:13;6;6;
73241;PMS5003;65659;49.234;-2.094;2024-03-22T16:30:38;6;4;